createdAt,value
2017-08-19T00:00:18.260Z,0
2017-08-19T00:01:19.809Z,0
2017-08-19T00:02:21.330Z,0
2017-08-19T00:03:22.814Z,0
2017-08-19T00:04:24.540Z,0
2017-08-19T00:05:25.991Z,0
2017-08-19T00:06:27.498Z,0
2017-08-19T00:07:29.036Z,0
2017-08-19T00:08:30.593Z,0
2017-08-19T00:09:32.194Z,0
2017-08-19T00:10:33.825Z,0
2017-08-19T00:11:35.348Z,0
2017-08-19T00:12:36.891Z,0
2017-08-19T00:13:38.425Z,0
2017-08-19T00:14:39.906Z,0
2017-08-19T00:15:41.418Z,0
2017-08-19T00:16:43.023Z,0
2017-08-19T00:17:44.537Z,0
2017-08-19T00:18:46.056Z,0
2017-08-19T00:19:47.607Z,0
2017-08-19T00:20:49.252Z,0
2017-08-19T00:21:50.765Z,0
2017-08-19T00:22:52.353Z,0
2017-08-19T00:23:54.149Z,0
2017-08-19T00:24:55.665Z,0
2017-08-19T00:25:57.223Z,0
2017-08-19T00:26:59.308Z,0
2017-08-19T00:28:01.404Z,0
2017-08-19T00:29:03.018Z,0
2017-08-19T00:30:04.533Z,0
2017-08-19T00:31:06.054Z,0
2017-08-19T00:32:07.581Z,0
2017-08-19T00:33:09.160Z,0
2017-08-19T00:34:10.717Z,0
2017-08-19T00:35:12.265Z,0
2017-08-19T00:36:13.802Z,0
2017-08-19T00:37:15.314Z,0
2017-08-19T00:38:16.843Z,0
2017-08-19T00:39:18.300Z,0
2017-08-19T00:40:19.795Z,0
2017-08-19T00:41:21.276Z,0
2017-08-19T00:42:22.802Z,0
2017-08-19T00:43:24.305Z,0
2017-08-19T00:44:25.828Z,0
2017-08-19T00:45:27.336Z,0
2017-08-19T00:46:28.927Z,0
2017-08-19T00:47:30.489Z,0
2017-08-19T00:48:32.012Z,0
2017-08-19T00:49:33.536Z,0
2017-08-19T00:50:35.038Z,0
2017-08-19T00:51:36.560Z,0
2017-08-19T00:52:38.013Z,0
2017-08-19T00:53:39.541Z,0
2017-08-19T00:54:41.054Z,0
2017-08-19T00:55:42.530Z,0
2017-08-19T00:56:43.962Z,0
2017-08-19T00:57:45.408Z,0
2017-08-19T00:58:46.971Z,0
2017-08-19T00:59:48.486Z,0
2017-08-19T01:00:50.017Z,0
2017-08-19T01:01:51.530Z,0
2017-08-19T01:02:53.044Z,0
2017-08-19T01:03:54.546Z,0
2017-08-19T01:04:56.100Z,0
2017-08-19T01:05:57.616Z,0
2017-08-19T01:06:59.103Z,0
2017-08-19T01:08:00.576Z,0
2017-08-19T01:09:02.095Z,0
2017-08-19T01:10:03.570Z,0
2017-08-19T01:11:05.338Z,0
2017-08-19T01:12:07.061Z,0
2017-08-19T01:13:08.694Z,0
2017-08-19T01:14:10.231Z,0
2017-08-19T01:15:11.733Z,0
2017-08-19T01:16:13.333Z,0
2017-08-19T01:17:14.815Z,0
2017-08-19T01:18:16.526Z,0
2017-08-19T01:19:18.415Z,0
2017-08-19T01:20:20.129Z,0
2017-08-19T01:21:21.920Z,0
2017-08-19T01:22:23.422Z,0
2017-08-19T01:23:24.912Z,0
2017-08-19T01:24:26.468Z,0
2017-08-19T01:25:28.028Z,0
2017-08-19T01:26:29.524Z,0
2017-08-19T01:27:31.273Z,0
2017-08-19T01:28:32.881Z,0
2017-08-19T01:29:34.446Z,0
2017-08-19T01:30:36.084Z,0
2017-08-19T01:31:37.584Z,0
2017-08-19T01:32:39.092Z,0
2017-08-19T01:33:40.586Z,0
2017-08-19T01:34:42.629Z,0
2017-08-19T01:35:44.550Z,0
2017-08-19T01:36:46.070Z,0
2017-08-19T01:37:47.631Z,0
2017-08-19T01:38:49.161Z,0
2017-08-19T01:39:50.754Z,0
2017-08-19T01:40:52.256Z,0
2017-08-19T01:41:53.741Z,0
2017-08-19T01:42:55.308Z,0
2017-08-19T01:43:56.831Z,0
2017-08-19T01:44:58.326Z,0
2017-08-19T01:45:59.860Z,0
2017-08-19T01:47:02.427Z,0
2017-08-19T01:48:03.810Z,0
2017-08-19T01:49:05.274Z,0
2017-08-19T01:50:06.815Z,0
2017-08-19T01:51:08.366Z,0
2017-08-19T01:52:09.897Z,0
2017-08-19T01:53:11.416Z,0
2017-08-19T01:54:12.868Z,0
2017-08-19T01:55:14.377Z,0
2017-08-19T01:56:15.862Z,0
2017-08-19T01:57:17.341Z,0
2017-08-19T01:58:18.864Z,0
2017-08-19T01:59:20.415Z,0
2017-08-19T02:00:22.037Z,0
2017-08-19T02:01:23.583Z,0
2017-08-19T02:02:25.127Z,0
2017-08-19T02:03:26.695Z,0
2017-08-19T02:04:28.265Z,0
2017-08-19T02:05:29.827Z,0
2017-08-19T02:06:31.324Z,0
2017-08-19T02:07:32.836Z,0
2017-08-19T02:08:34.331Z,0
2017-08-19T02:09:35.862Z,0
2017-08-19T02:10:37.325Z,0
2017-08-19T02:11:38.838Z,0
2017-08-19T02:12:40.347Z,0
2017-08-19T02:13:41.871Z,0
2017-08-19T02:14:43.346Z,0
2017-08-19T02:15:44.933Z,0
2017-08-19T02:16:46.460Z,0
2017-08-19T02:17:48.003Z,0
2017-08-19T02:18:49.545Z,0
2017-08-19T02:19:51.049Z,0
2017-08-19T02:20:52.635Z,0
2017-08-19T02:21:54.140Z,0
2017-08-19T02:22:55.666Z,0
2017-08-19T02:23:57.192Z,0
2017-08-19T02:24:58.699Z,0
2017-08-19T02:26:00.219Z,0
2017-08-19T02:27:01.754Z,0
2017-08-19T02:28:03.274Z,0
2017-08-19T02:29:04.815Z,0
2017-08-19T02:30:06.307Z,0
2017-08-19T02:31:07.851Z,0
2017-08-19T02:32:09.344Z,0
2017-08-19T02:33:10.865Z,0
2017-08-19T02:34:12.424Z,0
2017-08-19T02:35:13.952Z,0
2017-08-19T02:36:15.455Z,0
2017-08-19T02:37:17.041Z,0
2017-08-19T02:38:18.534Z,0
2017-08-19T02:39:20.771Z,0
2017-08-19T02:40:22.145Z,0
2017-08-19T02:41:23.673Z,0
2017-08-19T02:42:25.227Z,0
2017-08-19T02:43:26.771Z,0
2017-08-19T02:44:28.272Z,0
2017-08-19T02:45:29.789Z,0
2017-08-19T02:46:31.374Z,0
2017-08-19T02:47:32.876Z,0
2017-08-19T02:48:34.384Z,0
2017-08-19T02:49:35.902Z,0
2017-08-19T02:50:37.467Z,0
2017-08-19T02:51:38.968Z,0
2017-08-19T02:52:40.487Z,0
2017-08-19T02:53:42.000Z,0
2017-08-19T02:54:43.820Z,0
2017-08-19T02:55:45.373Z,0
2017-08-19T02:56:46.992Z,0
2017-08-19T02:57:48.505Z,0
2017-08-19T02:58:50.032Z,0
2017-08-19T02:59:51.590Z,0
2017-08-19T03:00:53.053Z,0
2017-08-19T03:01:54.593Z,0
2017-08-19T03:02:56.977Z,0
2017-08-19T03:03:58.533Z,0
2017-08-19T03:05:00.064Z,0
2017-08-19T03:06:01.605Z,0
2017-08-19T03:07:03.149Z,0
2017-08-19T03:08:04.807Z,0
2017-08-19T03:09:06.331Z,0
2017-08-19T03:10:07.849Z,0
2017-08-19T03:11:09.381Z,0
2017-08-19T03:12:10.931Z,0
2017-08-19T03:13:12.416Z,0
2017-08-19T03:14:13.935Z,0
2017-08-19T03:15:15.512Z,0
2017-08-19T03:16:17.098Z,0
2017-08-19T03:17:18.613Z,0
2017-08-19T03:18:20.123Z,0
2017-08-19T03:19:21.627Z,0
2017-08-19T03:20:23.142Z,0
2017-08-19T03:21:24.634Z,0
2017-08-19T03:22:26.244Z,0
2017-08-19T03:23:27.750Z,0
2017-08-19T03:24:29.348Z,0
2017-08-19T03:25:30.836Z,0
2017-08-19T03:26:32.327Z,0
2017-08-19T03:27:33.949Z,0
2017-08-19T03:28:35.494Z,0
2017-08-19T03:29:37.090Z,0
2017-08-19T03:30:38.634Z,0
2017-08-19T03:31:40.095Z,0
2017-08-19T03:32:41.564Z,0
2017-08-19T03:33:43.090Z,0
2017-08-19T03:34:44.708Z,0
2017-08-19T03:35:46.250Z,0
2017-08-19T03:36:47.855Z,0
2017-08-19T03:37:49.421Z,0
2017-08-19T03:38:50.904Z,0
2017-08-19T03:39:52.442Z,0
2017-08-19T03:40:53.923Z,0
2017-08-19T03:41:55.416Z,0
2017-08-19T03:42:56.992Z,0
2017-08-19T03:43:58.550Z,0
2017-08-19T03:45:00.031Z,0
2017-08-19T03:46:01.635Z,0
2017-08-19T03:47:03.172Z,0
2017-08-19T03:48:05.691Z,0
2017-08-19T03:49:07.175Z,0
2017-08-19T03:50:08.690Z,0
2017-08-19T03:51:10.195Z,0
2017-08-19T03:52:11.686Z,0
2017-08-19T03:53:13.232Z,0
2017-08-19T03:54:14.793Z,0
2017-08-19T03:55:16.268Z,0
2017-08-19T03:56:17.806Z,0
2017-08-19T03:57:19.323Z,0
2017-08-19T03:58:20.868Z,0
2017-08-19T03:59:22.355Z,0
2017-08-19T04:00:23.902Z,0
2017-08-19T04:01:25.348Z,0
2017-08-19T04:02:26.836Z,0
2017-08-19T04:03:28.362Z,0
2017-08-19T04:04:29.893Z,0
2017-08-19T04:05:31.396Z,0
2017-08-19T04:06:32.952Z,0
2017-08-19T04:07:34.487Z,0
2017-08-19T04:08:36.035Z,0
2017-08-19T04:09:37.597Z,0
2017-08-19T04:10:39.100Z,0
2017-08-19T04:11:40.678Z,0
2017-08-19T04:12:42.265Z,0
2017-08-19T04:13:43.782Z,0
2017-08-19T04:14:45.349Z,0
2017-08-19T04:15:46.820Z,5
2017-08-19T04:16:48.322Z,5
2017-08-19T04:17:49.883Z,5
2017-08-19T04:18:51.364Z,5
2017-08-19T04:19:52.955Z,5
2017-08-19T04:20:54.407Z,5
2017-08-19T04:21:55.944Z,5
2017-08-19T04:22:57.430Z,5
2017-08-19T04:23:59.022Z,5
2017-08-19T04:25:00.551Z,5
2017-08-19T04:26:02.053Z,5
2017-08-19T04:27:03.562Z,11
2017-08-19T04:28:05.087Z,11
2017-08-19T04:29:06.582Z,11
2017-08-19T04:30:08.104Z,11
2017-08-19T04:31:09.661Z,11
2017-08-19T04:32:11.183Z,11
2017-08-19T04:33:12.787Z,11
2017-08-19T04:34:14.289Z,11
2017-08-19T04:35:15.798Z,11
2017-08-19T04:36:17.335Z,16
2017-08-19T04:37:18.856Z,16
2017-08-19T04:38:20.429Z,16
2017-08-19T04:39:22.036Z,16
2017-08-19T04:40:23.601Z,16
2017-08-19T04:41:25.165Z,16
2017-08-19T04:42:26.708Z,16
2017-08-19T04:43:28.245Z,22
2017-08-19T04:44:29.737Z,22
2017-08-19T04:45:31.262Z,22
2017-08-19T04:46:32.839Z,22
2017-08-19T04:47:34.314Z,22
2017-08-19T04:48:35.843Z,22
2017-08-19T04:49:37.386Z,22
2017-08-19T04:50:38.897Z,22
2017-08-19T04:51:40.511Z,28
2017-08-19T04:52:42.090Z,28
2017-08-19T04:53:43.605Z,28
2017-08-19T04:54:45.125Z,28
2017-08-19T04:55:46.631Z,28
2017-08-19T04:56:48.134Z,28
2017-08-19T04:57:49.711Z,28
2017-08-19T04:58:51.348Z,28
2017-08-19T04:59:52.951Z,28
2017-08-19T05:00:54.493Z,28
2017-08-19T05:01:56.056Z,28
2017-08-19T05:02:57.576Z,33
2017-08-19T05:03:59.108Z,33
2017-08-19T05:05:00.632Z,33
2017-08-19T05:06:02.195Z,33
2017-08-19T05:07:03.681Z,33
2017-08-19T05:08:05.213Z,33
2017-08-19T05:09:06.832Z,33
2017-08-19T05:10:08.373Z,39
2017-08-19T05:11:09.904Z,39
2017-08-19T05:12:11.432Z,39
2017-08-19T05:13:12.953Z,39
2017-08-19T05:14:14.462Z,39
2017-08-19T05:15:15.957Z,39
2017-08-19T05:16:17.499Z,45
2017-08-19T05:17:19.023Z,45
2017-08-19T05:18:20.556Z,45
2017-08-19T05:19:22.012Z,45
2017-08-19T05:20:23.518Z,45
2017-08-19T05:21:24.994Z,45
2017-08-19T05:22:26.522Z,50
2017-08-19T05:23:28.028Z,50
2017-08-19T05:24:29.577Z,50
2017-08-19T05:25:31.082Z,50
2017-08-19T05:26:32.589Z,50
2017-08-19T05:27:34.109Z,50
2017-08-19T05:28:35.588Z,50
2017-08-19T05:29:37.125Z,50
2017-08-19T05:30:38.702Z,56
2017-08-19T05:31:40.171Z,56
2017-08-19T05:32:41.764Z,56
2017-08-19T05:33:43.227Z,56
2017-08-19T05:34:44.788Z,56
2017-08-19T05:35:46.432Z,56
2017-08-19T05:36:47.923Z,56
2017-08-19T05:37:49.424Z,61
2017-08-19T05:38:50.977Z,61
2017-08-19T05:39:52.593Z,61
2017-08-19T05:40:54.110Z,61
2017-08-19T05:41:55.629Z,61
2017-08-19T05:42:57.202Z,61
2017-08-19T05:43:58.753Z,61
2017-08-19T05:45:00.302Z,61
2017-08-19T05:46:01.848Z,67
2017-08-19T05:47:03.334Z,67
2017-08-19T05:48:04.875Z,67
2017-08-19T05:49:06.355Z,67
2017-08-19T05:50:07.904Z,67
2017-08-19T05:51:09.444Z,67
2017-08-19T05:52:10.965Z,73
2017-08-19T05:53:12.505Z,73
2017-08-19T05:54:14.049Z,73
2017-08-19T05:55:15.525Z,73
2017-08-19T05:56:17.074Z,73
2017-08-19T05:57:18.625Z,73
2017-08-19T05:58:20.145Z,73
2017-08-19T05:59:21.633Z,73
2017-08-19T06:00:23.148Z,73
2017-08-19T06:01:24.716Z,73
2017-08-19T06:02:26.254Z,67
2017-08-19T06:03:27.843Z,67
2017-08-19T06:04:29.363Z,73
2017-08-19T06:05:30.893Z,73
2017-08-19T06:06:32.429Z,73
2017-08-19T06:07:33.961Z,78
2017-08-19T06:08:35.510Z,78
2017-08-19T06:09:37.068Z,78
2017-08-19T06:10:38.551Z,78
2017-08-19T06:11:40.121Z,78
2017-08-19T06:12:41.677Z,78
2017-08-19T06:13:43.232Z,84
2017-08-19T06:14:44.726Z,90
2017-08-19T06:15:46.200Z,84
2017-08-19T06:16:47.716Z,84
2017-08-19T06:17:49.238Z,90
2017-08-19T06:18:50.742Z,90
2017-08-19T06:19:52.273Z,84
2017-08-19T06:20:53.769Z,84
2017-08-19T06:21:55.304Z,84
2017-08-19T06:22:56.817Z,90
2017-08-19T06:23:58.343Z,90
2017-08-19T06:24:59.864Z,95
2017-08-19T06:26:01.391Z,101
2017-08-19T06:27:02.941Z,106
2017-08-19T06:28:04.475Z,112
2017-08-19T06:29:05.962Z,118
2017-08-19T06:30:07.476Z,123
2017-08-19T06:31:08.969Z,123
2017-08-19T06:32:10.496Z,129
2017-08-19T06:33:12.023Z,123
2017-08-19T06:34:13.515Z,118
2017-08-19T06:35:15.028Z,118
2017-08-19T06:36:16.513Z,118
2017-08-19T06:37:17.998Z,123
2017-08-19T06:38:19.520Z,123
2017-08-19T06:39:21.019Z,123
2017-08-19T06:40:22.544Z,135
2017-08-19T06:41:24.052Z,129
2017-08-19T06:42:25.549Z,140
2017-08-19T06:43:27.112Z,129
2017-08-19T06:44:28.623Z,118
2017-08-19T06:45:30.158Z,112
2017-08-19T06:46:31.697Z,106
2017-08-19T06:47:33.186Z,106
2017-08-19T06:48:34.728Z,106
2017-08-19T06:49:36.275Z,106
2017-08-19T06:50:37.789Z,112
2017-08-19T06:51:39.381Z,112
2017-08-19T06:52:40.870Z,123
2017-08-19T06:53:42.393Z,129
2017-08-19T06:54:43.893Z,135
2017-08-19T06:55:45.409Z,135
2017-08-19T06:56:46.917Z,135
2017-08-19T06:57:48.455Z,129
2017-08-19T06:58:50.003Z,129
2017-08-19T06:59:51.543Z,123
2017-08-19T07:00:53.139Z,112
2017-08-19T07:01:54.663Z,106
2017-08-19T07:02:56.205Z,95
2017-08-19T07:03:57.732Z,90
2017-08-19T07:04:59.317Z,84
2017-08-19T07:06:00.864Z,84
2017-08-19T07:07:02.447Z,90
2017-08-19T07:08:03.951Z,95
2017-08-19T07:09:05.460Z,106
2017-08-19T07:10:07.027Z,112
2017-08-19T07:11:08.585Z,118
2017-08-19T07:12:10.016Z,118
2017-08-19T07:13:11.628Z,118
2017-08-19T07:14:13.178Z,118
2017-08-19T07:15:14.687Z,112
2017-08-19T07:16:16.225Z,101
2017-08-19T07:17:17.838Z,84
2017-08-19T07:18:19.325Z,78
2017-08-19T07:19:20.842Z,73
2017-08-19T07:20:22.357Z,73
2017-08-19T07:21:23.920Z,73
2017-08-19T07:22:25.490Z,73
2017-08-19T07:23:27.061Z,67
2017-08-19T07:24:28.570Z,67
2017-08-19T07:25:30.084Z,73
2017-08-19T07:26:31.601Z,73
2017-08-19T07:27:33.176Z,73
2017-08-19T07:28:34.759Z,73
2017-08-19T07:29:36.327Z,73
2017-08-19T07:30:37.852Z,73
2017-08-19T07:31:39.397Z,84
2017-08-19T07:32:40.916Z,101
2017-08-19T07:33:42.410Z,106
2017-08-19T07:34:43.940Z,112
2017-08-19T07:35:45.484Z,123
2017-08-19T07:36:47.020Z,135
2017-08-19T07:37:48.576Z,135
2017-08-19T07:38:50.084Z,129
2017-08-19T07:39:51.678Z,129
2017-08-19T07:40:53.214Z,135
2017-08-19T07:41:54.743Z,140
2017-08-19T07:42:56.320Z,151
2017-08-19T07:43:57.823Z,157
2017-08-19T07:44:59.364Z,157
2017-08-19T07:46:00.936Z,168
2017-08-19T07:47:02.469Z,174
2017-08-19T07:48:04.010Z,185
2017-08-19T07:49:05.504Z,202
2017-08-19T07:50:07.055Z,225
2017-08-19T07:51:08.584Z,258
2017-08-19T07:52:10.159Z,264
2017-08-19T07:53:11.696Z,270
2017-08-19T07:54:13.226Z,275
2017-08-19T07:55:14.777Z,326
2017-08-19T07:56:16.317Z,320
2017-08-19T07:57:17.860Z,281
2017-08-19T07:58:19.395Z,258
2017-08-19T07:59:20.910Z,236
2017-08-19T08:00:22.512Z,191
2017-08-19T08:01:24.152Z,151
2017-08-19T08:02:25.766Z,123
2017-08-19T08:03:27.343Z,106
2017-08-19T08:04:28.884Z,101
2017-08-19T08:05:30.468Z,90
2017-08-19T08:06:32.002Z,90
2017-08-19T08:07:33.625Z,90
2017-08-19T08:08:35.173Z,95
2017-08-19T08:09:36.789Z,95
2017-08-19T08:10:38.282Z,101
2017-08-19T08:11:39.842Z,106
2017-08-19T08:12:41.449Z,106
2017-08-19T08:13:42.957Z,106
2017-08-19T08:14:44.627Z,106
2017-08-19T08:15:46.158Z,106
2017-08-19T08:16:47.775Z,112
2017-08-19T08:17:49.358Z,123
2017-08-19T08:18:50.878Z,146
2017-08-19T08:19:52.449Z,168
2017-08-19T08:20:54.018Z,185
2017-08-19T08:21:55.524Z,196
2017-08-19T08:22:57.062Z,202
2017-08-19T08:23:58.666Z,202
2017-08-19T08:25:00.245Z,213
2017-08-19T08:26:01.775Z,236
2017-08-19T08:27:03.370Z,264
2017-08-19T08:28:04.998Z,258
2017-08-19T08:29:06.602Z,241
2017-08-19T08:30:08.161Z,225
2017-08-19T08:31:09.697Z,219
2017-08-19T08:32:11.228Z,180
2017-08-19T08:33:12.766Z,163
2017-08-19T08:34:14.254Z,241
2017-08-19T08:35:15.837Z,213
2017-08-19T08:36:17.326Z,225
2017-08-19T08:37:18.910Z,320
2017-08-19T08:38:20.446Z,343
2017-08-19T08:39:22.057Z,348
2017-08-19T08:40:23.593Z,326
2017-08-19T08:41:25.081Z,354
2017-08-19T08:42:26.676Z,360
2017-08-19T08:43:28.224Z,371
2017-08-19T08:44:29.892Z,225
2017-08-19T08:45:31.421Z,281
2017-08-19T08:46:32.985Z,337
2017-08-19T08:47:34.531Z,309
2017-08-19T08:48:36.085Z,393
2017-08-19T08:49:37.699Z,399
2017-08-19T08:50:39.171Z,371
2017-08-19T08:51:40.725Z,376
2017-08-19T08:52:42.271Z,365
2017-08-19T08:53:43.775Z,365
2017-08-19T08:54:45.298Z,371
2017-08-19T08:55:46.807Z,371
2017-08-19T08:56:48.360Z,388
2017-08-19T08:57:49.873Z,410
2017-08-19T08:58:51.441Z,388
2017-08-19T08:59:52.956Z,455
2017-08-19T09:00:54.489Z,444
2017-08-19T09:01:56.067Z,405
2017-08-19T09:02:57.621Z,399
2017-08-19T09:03:59.141Z,399
2017-08-19T09:05:00.719Z,393
2017-08-19T09:06:02.273Z,225
2017-08-19T09:07:03.796Z,399
2017-08-19T09:08:05.322Z,168
2017-08-19T09:09:06.895Z,185
2017-08-19T09:10:08.458Z,438
2017-08-19T09:11:10.003Z,196
2017-08-19T09:12:11.538Z,168
2017-08-19T09:13:13.082Z,163
2017-08-19T09:14:14.697Z,405
2017-08-19T09:15:16.253Z,191
2017-08-19T09:16:17.850Z,337
2017-08-19T09:17:19.405Z,405
2017-08-19T09:18:20.990Z,354
2017-08-19T09:19:22.582Z,416
2017-08-19T09:20:24.157Z,410
2017-08-19T09:21:26.534Z,410
2017-08-19T09:22:28.045Z,421
2017-08-19T09:23:29.621Z,427
2017-08-19T09:24:31.278Z,438
2017-08-19T09:25:32.798Z,450
2017-08-19T09:26:34.406Z,427
2017-08-19T09:27:35.922Z,461
2017-08-19T09:28:37.508Z,472
2017-08-19T09:29:39.078Z,489
2017-08-19T09:30:40.728Z,506
2017-08-19T09:31:42.339Z,517
2017-08-19T09:32:43.971Z,540
2017-08-19T09:33:45.545Z,528
2017-08-19T09:34:47.440Z,540
2017-08-19T09:35:49.002Z,556
2017-08-19T09:36:50.537Z,568
2017-08-19T09:37:52.100Z,585
2017-08-19T09:38:53.639Z,585
2017-08-19T09:39:55.167Z,601
2017-08-19T09:40:56.784Z,613
2017-08-19T09:41:58.351Z,618
2017-08-19T09:42:59.917Z,635
2017-08-19T09:44:01.558Z,658
2017-08-19T09:45:03.146Z,658
2017-08-19T09:46:04.754Z,337
2017-08-19T09:47:06.379Z,641
2017-08-19T09:48:07.991Z,669
2017-08-19T09:49:09.588Z,686
2017-08-19T09:50:11.166Z,635
2017-08-19T09:51:12.825Z,686
2017-08-19T09:52:14.417Z,663
2017-08-19T09:53:16.064Z,646
2017-08-19T09:54:17.646Z,658
2017-08-19T09:55:19.177Z,174
2017-08-19T09:56:20.737Z,174
2017-08-19T09:57:22.473Z,630
2017-08-19T09:58:25.783Z,607
2017-08-19T09:59:27.432Z,635
2017-08-19T10:00:29.087Z,641
2017-08-19T10:01:30.701Z,641
2017-08-19T10:02:32.246Z,180
2017-08-19T10:03:33.831Z,601
2017-08-19T10:04:35.417Z,596
2017-08-19T10:05:36.933Z,585
2017-08-19T10:06:38.487Z,579
2017-08-19T10:07:40.031Z,573
2017-08-19T10:08:41.560Z,579
2017-08-19T10:09:43.246Z,568
2017-08-19T10:10:44.805Z,551
2017-08-19T10:11:46.370Z,534
2017-08-19T10:12:47.966Z,545
2017-08-19T10:13:49.578Z,376
2017-08-19T10:14:51.174Z,506
2017-08-19T10:15:52.778Z,489
2017-08-19T10:16:54.406Z,478
2017-08-19T10:17:56.144Z,472
2017-08-19T10:18:57.715Z,461
2017-08-19T10:19:59.362Z,450
2017-08-19T10:21:00.942Z,444
2017-08-19T10:22:02.529Z,433
2017-08-19T10:23:04.256Z,421
2017-08-19T10:24:05.842Z,416
2017-08-19T10:25:07.431Z,416
2017-08-19T10:26:09.021Z,410
2017-08-19T10:27:10.599Z,410
2017-08-19T10:28:12.167Z,405
2017-08-19T10:29:13.859Z,399
2017-08-19T10:30:15.434Z,393
2017-08-19T10:31:17.104Z,393
2017-08-19T10:32:18.843Z,393
2017-08-19T10:33:20.493Z,393
2017-08-19T10:34:22.098Z,393
2017-08-19T10:35:23.678Z,393
2017-08-19T10:36:25.242Z,399
2017-08-19T10:37:26.777Z,399
2017-08-19T10:38:28.329Z,399
2017-08-19T10:39:29.987Z,405
2017-08-19T10:40:31.531Z,405
2017-08-19T10:41:33.074Z,410
2017-08-19T10:42:34.659Z,410
2017-08-19T10:43:36.186Z,410
2017-08-19T10:44:37.820Z,416
2017-08-19T10:45:39.372Z,416
2017-08-19T10:46:40.937Z,416
2017-08-19T10:47:42.499Z,416
2017-08-19T10:48:44.061Z,421
2017-08-19T10:49:45.666Z,427
2017-08-19T10:50:47.229Z,427
2017-08-19T10:51:48.796Z,433
2017-08-19T10:52:50.350Z,444
2017-08-19T10:53:51.883Z,466
2017-08-19T10:54:53.450Z,472
2017-08-19T10:55:54.974Z,483
2017-08-19T10:56:56.587Z,495
2017-08-19T10:57:58.170Z,500
2017-08-19T10:58:59.701Z,500
2017-08-19T11:00:01.258Z,500
2017-08-19T11:01:02.816Z,517
2017-08-19T11:02:04.386Z,534
2017-08-19T11:03:05.926Z,551
2017-08-19T11:04:07.575Z,579
2017-08-19T11:05:09.165Z,607
2017-08-19T11:06:10.827Z,945
2017-08-19T11:07:12.446Z,1951
2017-08-19T11:08:13.967Z,2216
2017-08-19T11:09:15.607Z,2250
2017-08-19T11:10:17.240Z,2278
2017-08-19T11:11:18.933Z,2244
2017-08-19T11:12:20.329Z,2283
2017-08-19T11:13:21.944Z,2289
2017-08-19T11:14:23.533Z,2401
2017-08-19T11:15:25.105Z,2345
2017-08-19T11:16:26.655Z,2340
2017-08-19T11:17:28.344Z,2351
2017-08-19T11:18:29.928Z,2306
2017-08-19T11:19:31.478Z,2311
2017-08-19T11:20:33.062Z,2323
2017-08-19T11:21:34.754Z,2334
2017-08-19T11:22:36.349Z,2379
2017-08-19T11:23:37.953Z,2379
2017-08-19T11:24:39.549Z,2373
2017-08-19T11:25:41.203Z,2317
2017-08-19T11:26:42.946Z,2176
2017-08-19T11:27:44.695Z,2244
2017-08-19T11:28:46.417Z,2356
2017-08-19T11:29:48.050Z,2340
2017-08-19T11:30:49.657Z,2278
2017-08-19T11:31:51.303Z,2362
2017-08-19T11:32:52.976Z,2255
2017-08-19T11:33:54.569Z,2216
2017-08-19T11:34:56.104Z,2295
2017-08-19T11:35:57.684Z,2323
2017-08-19T11:36:59.454Z,2266
2017-08-19T11:38:01.036Z,2227
2017-08-19T11:39:02.842Z,2272
2017-08-19T11:40:04.364Z,2272
2017-08-19T11:41:05.915Z,2221
2017-08-19T11:42:07.534Z,2255
2017-08-19T11:43:09.180Z,2266
2017-08-19T11:44:10.776Z,2176
2017-08-19T11:45:12.359Z,2244
2017-08-19T11:46:13.989Z,2266
2017-08-19T11:47:15.536Z,2030
2017-08-19T11:48:17.128Z,2013
2017-08-19T11:49:18.712Z,2030
2017-08-19T11:50:20.233Z,2025
2017-08-19T11:51:21.824Z,1991
2017-08-19T11:52:23.375Z,2002
2017-08-19T11:53:25.010Z,2008
2017-08-19T11:54:26.604Z,1912
2017-08-19T11:55:28.187Z,1963
2017-08-19T11:56:29.761Z,1968
2017-08-19T11:57:31.332Z,1597
2017-08-19T11:58:32.965Z,1018
2017-08-19T11:59:34.535Z,922
2017-08-19T12:00:36.088Z,292
2017-08-19T12:01:37.726Z,421
2017-08-19T12:02:39.265Z,298
2017-08-19T12:03:40.852Z,1091
2017-08-19T12:04:42.357Z,399
2017-08-19T12:05:43.939Z,2025
2017-08-19T12:06:45.610Z,1974
2017-08-19T12:07:47.298Z,2013
2017-08-19T12:08:48.890Z,2041
2017-08-19T12:09:50.474Z,2019
2017-08-19T12:10:52.075Z,1833
2017-08-19T12:11:53.686Z,1906
2017-08-19T12:12:55.245Z,1957
2017-08-19T12:13:56.834Z,1912
2017-08-19T12:14:58.444Z,1861
2017-08-19T12:16:00.077Z,1867
2017-08-19T12:17:02.239Z,281
2017-08-19T12:18:03.905Z,365
2017-08-19T12:19:05.512Z,1906
2017-08-19T12:20:07.131Z,1873
2017-08-19T12:21:08.717Z,1935
2017-08-19T12:22:10.360Z,298
2017-08-19T12:23:11.986Z,1473
2017-08-19T12:24:13.615Z,1366
2017-08-19T12:25:15.276Z,1884
2017-08-19T12:26:16.950Z,1895
2017-08-19T12:27:18.672Z,1822
2017-08-19T12:28:20.275Z,1833
2017-08-19T12:29:21.961Z,1912
2017-08-19T12:30:23.507Z,1816
2017-08-19T12:31:25.076Z,1850
2017-08-19T12:32:26.610Z,298
2017-08-19T12:33:28.224Z,1428
2017-08-19T12:34:29.812Z,303
2017-08-19T12:35:31.502Z,258
2017-08-19T12:36:33.106Z,1001
2017-08-19T12:37:34.683Z,1845
2017-08-19T12:38:36.292Z,1794
2017-08-19T12:39:37.911Z,1839
2017-08-19T12:40:39.494Z,1850
2017-08-19T12:41:41.108Z,1777
2017-08-19T12:42:42.799Z,1783
2017-08-19T12:43:44.429Z,1794
2017-08-19T12:44:46.159Z,1845
2017-08-19T12:45:47.852Z,1845
2017-08-19T12:46:49.459Z,1861
2017-08-19T12:47:50.989Z,1816
2017-08-19T12:48:52.618Z,1878
2017-08-19T12:49:54.245Z,1957
2017-08-19T12:50:55.810Z,1867
2017-08-19T12:51:57.399Z,1890
2017-08-19T12:52:59.068Z,1856
2017-08-19T12:54:00.717Z,1811
2017-08-19T12:55:02.285Z,1912
2017-08-19T12:56:03.953Z,1929
2017-08-19T12:57:05.484Z,1912
2017-08-19T12:58:07.102Z,1901
2017-08-19T12:59:08.665Z,1929
2017-08-19T13:00:10.169Z,2019
2017-08-19T13:01:11.855Z,2030
2017-08-19T13:02:13.380Z,1996
2017-08-19T13:03:14.954Z,1985
2017-08-19T13:04:16.571Z,1968
2017-08-19T13:05:18.183Z,1963
2017-08-19T13:06:19.779Z,1985
2017-08-19T13:07:21.398Z,2025
2017-08-19T13:08:23.030Z,2041
2017-08-19T13:09:24.693Z,405
2017-08-19T13:10:26.357Z,511
2017-08-19T13:11:27.938Z,590
2017-08-19T13:12:29.569Z,2019
2017-08-19T13:13:31.152Z,2165
2017-08-19T13:14:32.701Z,1985
2017-08-19T13:15:34.398Z,2126
2017-08-19T13:16:35.922Z,1220
2017-08-19T13:17:37.499Z,365
2017-08-19T13:18:39.121Z,506
2017-08-19T13:19:40.725Z,2143
2017-08-19T13:20:42.333Z,894
2017-08-19T13:21:43.915Z,2193
2017-08-19T13:22:45.587Z,810
2017-08-19T13:23:47.257Z,2008
2017-08-19T13:24:48.936Z,2058
2017-08-19T13:25:50.582Z,2188
2017-08-19T13:26:52.170Z,2092
2017-08-19T13:27:53.769Z,427
2017-08-19T13:28:55.329Z,405
2017-08-19T13:29:56.902Z,478
2017-08-19T13:30:58.549Z,900
2017-08-19T13:32:00.186Z,410
2017-08-19T13:33:01.696Z,399
2017-08-19T13:34:03.279Z,405
2017-08-19T13:35:04.829Z,680
2017-08-19T13:36:06.387Z,444
2017-08-19T13:37:07.976Z,511
2017-08-19T13:38:09.620Z,365
2017-08-19T13:39:11.210Z,320
2017-08-19T13:40:12.798Z,281
2017-08-19T13:41:14.385Z,298
2017-08-19T13:42:15.923Z,315
2017-08-19T13:43:17.574Z,258
2017-08-19T13:44:19.120Z,281
2017-08-19T13:45:20.814Z,270
2017-08-19T13:46:22.390Z,270
2017-08-19T13:47:23.937Z,303
2017-08-19T13:48:25.505Z,2182
2017-08-19T13:49:27.011Z,2143
2017-08-19T13:50:28.602Z,326
2017-08-19T13:51:30.293Z,275
2017-08-19T13:52:32.037Z,253
2017-08-19T13:53:33.606Z,247
2017-08-19T13:54:35.201Z,253
2017-08-19T13:55:36.717Z,258
2017-08-19T13:56:38.358Z,517
2017-08-19T13:57:40.084Z,315
2017-08-19T13:58:41.685Z,337
2017-08-19T13:59:43.299Z,1906
2017-08-19T14:00:44.967Z,2137
2017-08-19T14:01:46.796Z,1473
2017-08-19T14:02:48.412Z,1518
2017-08-19T14:03:50.068Z,1434
2017-08-19T14:04:51.642Z,320
2017-08-19T14:05:53.216Z,247
2017-08-19T14:06:54.778Z,219
2017-08-19T14:07:56.481Z,208
2017-08-19T14:08:58.087Z,208
2017-08-19T14:09:59.930Z,225
2017-08-19T14:11:01.573Z,258
2017-08-19T14:12:03.234Z,331
2017-08-19T14:13:05.016Z,1783
2017-08-19T14:14:06.577Z,1912
2017-08-19T14:15:08.278Z,2053
2017-08-19T14:16:09.909Z,2171
2017-08-19T14:17:11.595Z,2058
2017-08-19T14:18:13.214Z,1951
2017-08-19T14:19:14.763Z,483
2017-08-19T14:20:16.468Z,427
2017-08-19T14:21:18.124Z,2148
2017-08-19T14:22:19.765Z,2143
2017-08-19T14:23:21.444Z,360
2017-08-19T14:24:23.266Z,326
2017-08-19T14:25:24.830Z,348
2017-08-19T14:26:26.423Z,534